createdAt,value
2022-10-28T00:02:15.505Z,101122.09
2022-10-28T00:07:17.191Z,101129.66
2022-10-28T00:12:18.760Z,101128.38
2022-10-28T00:17:20.390Z,101125.09
2022-10-28T00:22:22.075Z,101118.19
2022-10-28T00:27:23.673Z,101123.81
2022-10-28T00:32:25.241Z,101117.31
2022-10-28T00:37:26.778Z,101101.28
2022-10-28T00:42:28.420Z,101102.34
2022-10-28T00:47:42.299Z,101097.16
2022-10-28T00:52:47.069Z,101090.69
2022-10-28T00:57:49.485Z,101083.50
2022-10-28T01:02:51.313Z,101085.47
2022-10-28T01:07:57.304Z,101079.66
2022-10-28T01:13:11.501Z,101079.84
2022-10-28T01:19:08.448Z,101069.25
2022-10-28T01:24:26.866Z,101065.13
2022-10-28T01:29:53.254Z,101062.28
2022-10-28T01:35:03.644Z,101062.28
2022-10-28T01:40:14.175Z,101060.53
2022-10-28T01:45:26.466Z,101049.69
2022-10-28T01:50:41.003Z,101048.56
2022-10-28T01:55:47.577Z,101034.50
2022-10-28T02:00:50.032Z,101033.66
2022-10-28T02:05:57.750Z,101026.41
2022-10-28T02:11:18.414Z,101022.50
2022-10-28T02:16:41.747Z,101021.22
2022-10-28T02:21:43.291Z,101021.88
2022-10-28T02:27:02.868Z,101028.78
2022-10-28T02:32:08.853Z,101024.38
2022-10-28T02:37:23.992Z,101026.31
2022-10-28T02:42:28.903Z,101025.22
2022-10-28T02:47:36.003Z,101016.13
2022-10-28T02:52:41.593Z,101015.91
2022-10-28T02:57:49.256Z,101014.31
2022-10-28T03:02:51.215Z,101018.13
2022-10-28T03:07:53.033Z,101020.25
2022-10-28T03:12:54.766Z,101024.22
2022-10-28T03:17:56.498Z,101010.59
2022-10-28T03:22:58.129Z,101013.16
2022-10-28T03:27:59.614Z,101011.53
2022-10-28T03:33:01.183Z,101001.38
2022-10-28T03:38:02.784Z,101010.16
2022-10-28T03:43:04.328Z,101000.41
2022-10-28T03:48:06.000Z,101010.16
2022-10-28T03:53:07.855Z,101002.16
2022-10-28T03:58:09.472Z,101006.03
2022-10-28T04:03:10.995Z,101003.00
2022-10-28T04:08:12.518Z,100999.56
2022-10-28T04:13:14.947Z,100995.88
2022-10-28T04:18:16.616Z,101007.88
2022-10-28T04:23:19.356Z,101007.56
2022-10-28T04:28:24.164Z,100996.84
2022-10-28T04:33:26.074Z,100992.41
2022-10-28T04:38:27.660Z,100978.75
2022-10-28T04:43:29.321Z,100978.41
2022-10-28T04:48:30.905Z,100975.56
2022-10-28T04:53:32.494Z,100969.19
2022-10-28T04:58:34.028Z,100972.19
2022-10-28T05:03:35.944Z,100969.91
2022-10-28T05:08:37.481Z,100978.63
2022-10-28T05:13:39.128Z,100970.31
2022-10-28T05:18:40.779Z,100968.72
2022-10-28T05:23:42.381Z,100972.41
2022-10-28T05:28:44.010Z,100962.88
2022-10-28T05:33:45.580Z,100966.31
2022-10-28T05:38:47.128Z,100968.69
2022-10-28T05:43:48.667Z,100980.16
2022-10-28T05:48:50.216Z,100969.13
2022-10-28T05:53:51.747Z,100965.28
2022-10-28T05:58:53.305Z,100963.66
2022-10-28T06:03:54.977Z,100966.53
2022-10-28T06:08:56.588Z,100958.19
2022-10-28T06:13:56.689Z,100954.13
2022-10-28T06:18:58.312Z,100959.66
2022-10-28T06:23:59.855Z,100962.69
2022-10-28T06:29:01.615Z,100968.78
2022-10-28T06:34:04.293Z,100980.69
2022-10-28T06:39:06.041Z,100973.59
2022-10-28T06:44:07.789Z,100979.00
2022-10-28T06:49:10.899Z,100990.78
2022-10-28T06:54:12.446Z,100987.22
2022-10-28T06:59:13.996Z,100991.75
2022-10-28T07:04:15.587Z,100984.97
2022-10-28T07:09:17.220Z,100984.88
2022-10-28T07:14:18.789Z,100982.63
2022-10-28T07:19:22.593Z,100988.66
2022-10-28T07:24:24.440Z,100982.19
2022-10-28T07:29:26.005Z,100976.00
2022-10-28T07:34:27.703Z,100977.72
2022-10-28T07:39:30.171Z,100983.09
2022-10-28T07:44:31.782Z,100989.91
2022-10-28T07:49:33.435Z,100989.97
2022-10-28T07:54:34.994Z,100990.72
2022-10-28T07:59:36.559Z,100990.13
2022-10-28T08:04:38.178Z,100980.84
2022-10-28T08:09:40.239Z,100980.78
2022-10-28T08:14:42.173Z,100974.72
2022-10-28T08:19:43.702Z,100971.25
2022-10-28T08:24:45.246Z,100971.78
2022-10-28T08:29:46.814Z,100959.84
2022-10-28T08:34:48.372Z,100974.88
2022-10-28T08:39:49.910Z,100956.78
2022-10-28T08:45:00.526Z,100960.44
2022-10-28T08:50:19.104Z,100955.31
2022-10-28T08:55:29.993Z,100968.09
2022-10-28T09:00:33.682Z,100973.69
2022-10-28T09:05:35.402Z,100962.75
2022-10-28T09:10:45.725Z,100969.06
2022-10-28T09:16:22.488Z,100965.16
2022-10-28T09:21:35.437Z,100955.91
2022-10-28T09:26:52.172Z,100967.81
2022-10-28T09:31:58.244Z,100964.13
2022-10-28T09:37:14.760Z,100959.00
2022-10-28T09:42:24.005Z,100952.53
2022-10-28T09:47:30.627Z,100957.56
2022-10-28T09:52:43.442Z,100954.25
2022-10-28T09:57:44.998Z,100957.94
2022-10-28T10:02:46.678Z,100951.75
2022-10-28T10:07:54.268Z,100947.88
2022-10-28T10:13:00.191Z,100943.16
2022-10-28T10:18:05.399Z,100950.53
2022-10-28T10:23:28.411Z,100950.97
2022-10-28T10:28:31.340Z,100951.41
2022-10-28T10:33:39.239Z,100939.50
2022-10-28T10:38:49.474Z,100938.19
2022-10-28T10:43:51.019Z,100939.97
2022-10-28T10:49:16.140Z,100927.78
2022-10-28T10:54:19.129Z,100930.44
2022-10-28T10:59:30.152Z,100920.84
2022-10-28T11:04:36.864Z,100932.56
2022-10-28T11:09:42.451Z,100928.09
2022-10-28T11:14:58.568Z,100924.03
2022-10-28T11:20:29.952Z,100923.38
2022-10-28T11:25:45.594Z,100905.59
2022-10-28T11:31:15.007Z,100896.50
2022-10-28T11:36:25.243Z,100901.00
2022-10-28T11:42:04.066Z,100887.09
2022-10-28T11:47:48.877Z,100883.03
2022-10-28T11:53:17.875Z,100878.22
2022-10-28T11:58:42.887Z,100884.06
2022-10-28T12:04:26.786Z,100871.69
2022-10-28T12:09:48.407Z,100860.66
2022-10-28T12:14:57.077Z,100867.50
2022-10-28T12:20:02.728Z,100847.56
2022-10-28T12:25:13.798Z,100861.59
2022-10-28T12:30:33.337Z,100856.69
2022-10-28T12:35:41.020Z,100852.69
2022-10-28T12:40:59.695Z,100837.97
2022-10-28T12:46:02.514Z,100839.56
2022-10-28T12:51:29.888Z,100837.25
2022-10-28T12:56:40.870Z,100835.75
2022-10-28T13:01:47.305Z,100831.63
2022-10-28T13:07:03.343Z,100830.41
2022-10-28T13:12:35.854Z,100824.16
2022-10-28T13:18:24.277Z,100825.53
2022-10-28T13:23:40.808Z,100817.28
2022-10-28T13:28:48.463Z,100819.34
2022-10-28T13:34:00.132Z,100812.09
2022-10-28T13:39:04.478Z,100807.28
2022-10-28T13:44:08.742Z,100801.47
2022-10-28T13:50:01.310Z,100795.13
2022-10-28T13:55:40.717Z,100787.59
2022-10-28T14:00:42.291Z,100790.56
2022-10-28T14:05:43.830Z,100791.25
2022-10-28T14:11:13.912Z,100791.97
2022-10-28T14:16:24.450Z,100796.47
2022-10-28T14:22:01.978Z,100782.97
2022-10-28T14:27:08.039Z,100786.56
2022-10-28T14:32:31.675Z,100786.59
2022-10-28T14:37:45.149Z,100785.88
2022-10-28T14:42:46.824Z,100782.47
2022-10-28T14:48:19.084Z,100779.91
2022-10-28T14:53:26.318Z,100782.66
2022-10-28T14:58:31.411Z,100776.13
2022-10-28T15:03:33.098Z,100785.56
2022-10-28T15:08:34.707Z,100781.41
2022-10-28T15:13:36.620Z,100767.81
2022-10-28T15:18:47.195Z,100760.22
2022-10-28T15:24:01.446Z,100768.41
2022-10-28T15:29:03.071Z,100770.53
2022-10-28T15:34:04.637Z,100766.78
2022-10-28T15:39:14.646Z,100765.13
2022-10-28T15:44:43.032Z,100770.19
2022-10-28T15:49:46.487Z,100776.94
2022-10-28T15:54:55.810Z,100773.06
2022-10-28T16:00:22.450Z,100771.28
2022-10-28T16:05:33.520Z,100772.63
2022-10-28T16:10:42.835Z,100769.91
2022-10-28T16:15:55.705Z,100763.22
2022-10-28T16:21:00.072Z,100770.47
2022-10-28T16:26:01.801Z,100772.84
2022-10-28T16:31:03.639Z,100772.22
2022-10-28T16:36:05.477Z,100770.09
2022-10-28T16:41:14.528Z,100768.28
2022-10-28T16:46:16.111Z,100772.53
2022-10-28T16:51:18.659Z,100777.75
2022-10-28T16:56:20.324Z,100778.22
2022-10-28T17:01:22.908Z,100782.69
2022-10-28T17:06:24.775Z,100777.28
2022-10-28T17:11:26.440Z,100784.03
2022-10-28T17:16:28.022Z,100788.50
2022-10-28T17:21:29.758Z,100783.66
2022-10-28T17:26:31.306Z,100785.84
2022-10-28T17:31:32.857Z,100785.41
2022-10-28T17:36:34.424Z,100778.66
2022-10-28T17:41:36.008Z,100780.03
2022-10-28T17:46:37.546Z,100783.63
2022-10-28T17:51:39.106Z,100771.59
2022-10-28T17:56:42.230Z,100776.31
2022-10-28T18:01:44.096Z,100778.47
2022-10-28T18:06:45.700Z,100766.72
2022-10-28T18:11:47.235Z,100769.28
2022-10-28T18:16:50.361Z,100759.38
2022-10-28T18:21:51.951Z,100754.03
2022-10-28T18:26:55.845Z,100750.31
2022-10-28T18:31:57.435Z,100759.19
2022-10-28T18:36:59.012Z,100746.84
2022-10-28T18:42:00.600Z,100751.13
2022-10-28T18:47:02.147Z,100751.69
2022-10-28T18:52:04.003Z,100747.06
2022-10-28T18:57:05.583Z,100747.28
2022-10-28T19:02:08.668Z,100744.97
2022-10-28T19:07:10.365Z,100760.09
2022-10-28T19:12:12.133Z,100749.09
2022-10-28T19:17:13.748Z,100741.06
2022-10-28T19:22:16.071Z,100742.34
2022-10-28T19:27:17.659Z,100746.63
2022-10-28T19:32:19.265Z,100731.13
2022-10-28T19:37:21.275Z,100740.94
2022-10-28T19:42:22.831Z,100729.47
2022-10-28T19:47:24.379Z,100739.72
2022-10-28T19:52:25.913Z,100741.41
2022-10-28T19:57:27.491Z,100743.50
2022-10-28T20:02:29.137Z,100740.09
2022-10-28T20:07:30.772Z,100739.50
2022-10-28T20:12:32.318Z,100732.72
2022-10-28T20:17:33.872Z,100732.84
2022-10-28T20:22:39.859Z,100734.16
2022-10-28T20:27:43.682Z,100723.31
2022-10-28T20:32:45.281Z,100718.19
2022-10-28T20:37:47.949Z,100725.50
2022-10-28T20:42:49.509Z,100723.78
2022-10-28T20:47:53.052Z,100728.22
2022-10-28T20:52:54.772Z,100721.34
2022-10-28T20:57:56.515Z,100717.88
2022-10-28T21:02:58.494Z,100726.16
2022-10-28T21:08:00.651Z,100720.16
2022-10-28T21:13:02.823Z,100712.38
2022-10-28T21:18:05.726Z,100716.34
2022-10-28T21:23:07.292Z,100710.94
2022-10-28T21:28:08.856Z,100710.28
2022-10-28T21:33:11.699Z,100712.66
2022-10-28T21:38:13.612Z,100704.16
2022-10-28T21:43:15.687Z,100705.44
2022-10-28T21:48:17.250Z,100699.50
2022-10-28T21:53:19.687Z,100696.72
2022-10-28T21:58:21.267Z,100710.81
2022-10-28T22:03:22.803Z,100702.66
2022-10-28T22:08:24.880Z,100700.44
2022-10-28T22:13:26.501Z,100697.13
2022-10-28T22:18:29.318Z,100693.41
2022-10-28T22:23:31.120Z,100685.66
2022-10-28T22:28:32.838Z,100693.19
2022-10-28T22:33:34.772Z,100698.16
2022-10-28T22:38:36.993Z,100694.22
2022-10-28T22:43:38.798Z,100693.75
2022-10-28T22:48:40.913Z,100693.84
2022-10-28T22:53:42.856Z,100701.16
2022-10-28T22:58:44.414Z,100692.00
2022-10-28T23:03:48.283Z,100692.00
2022-10-28T23:08:50.490Z,100689.19
2022-10-28T23:13:53.381Z,100689.19
2022-10-28T23:18:55.007Z,100688.31
2022-10-28T23:24:00.451Z,100692.25
2022-10-28T23:29:02.062Z,100687.06
2022-10-28T23:34:03.669Z,100687.75
2022-10-28T23:39:05.209Z,100681.09
2022-10-28T23:44:06.748Z,100679.34
2022-10-28T23:49:08.301Z,100693.19
2022-10-28T23:54:09.833Z,100685.56
2022-10-28T23:59:11.366Z,100689.28
